Time;durP1;ratioP1;P1;durP2;ratioP2;P2;SDS_P1;SDS_P2;PMS_P1;PMS_P2;Temp;Humidity;BMP_temperature;BMP_pressure;BME280_temperature;BME280_humidity;BME280_pressure;Samples;Min_cycle;Max_cycle;Signal;HPM_P1;HPM_P2
2023/04/03 03:01:08;;;;;;;0.30;0.30;;;15.80;52.80;;;;;;5745986;22;46005;-68
2023/04/03 03:03:34;;;;;;;0.50;0.40;;;15.80;52.80;;;;;;4943504;28;45638;-68
2023/04/03 03:06:10;;;;;;;0.40;0.40;;;15.80;52.80;;;;;;4942375;28;45479;-67
2023/04/03 03:08:35;;;;;;;0.50;0.35;;;15.80;52.80;;;;;;4982085;28;45292;-67
2023/04/03 03:11:01;;;;;;;0.70;0.28;;;15.80;52.80;;;;;;4959022;28;45575;-68
2023/04/03 03:13:27;;;;;;;0.50;0.50;;;15.80;52.80;;;;;;4938689;28;45717;-67
2023/04/03 03:15:53;;;;;;;0.80;0.50;;;15.80;52.80;;;;;;4944488;28;45439;-68
2023/04/03 03:18:18;;;;;;;0.50;0.50;;;15.80;52.80;;;;;;4941520;28;48269;-68
2023/04/03 03:20:44;;;;;;;0.45;0.30;;;15.70;52.80;;;;;;4966525;28;44973;-68
2023/04/03 03:23:10;;;;;;;0.40;0.40;;;15.80;52.80;;;;;;4988628;28;45229;-68
2023/04/03 03:25:39;;;;;;;0.57;0.50;;;15.70;52.70;;;;;;4948430;28;45259;-67
2023/04/03 03:28:05;;;;;;;0.40;0.40;;;15.70;52.80;;;;;;4966235;28;46582;-68
2023/04/03 03:30:31;;;;;;;0.40;0.40;;;15.80;52.80;;;;;;4978887;28;45191;-68
2023/04/03 03:32:56;;;;;;;0.32;0.32;;;15.70;52.70;;;;;;4965337;28;44773;-68
2023/04/03 03:35:22;;;;;;;0.50;0.47;;;15.80;52.90;;;;;;4965680;28;45748;-68
2023/04/03 03:37:47;;;;;;;0.50;0.40;;;15.80;52.80;;;;;;4951821;28;46487;-68
2023/04/03 03:40:13;;;;;;;0.60;0.50;;;15.70;52.70;;;;;;4983303;28;45632;-68
2023/04/03 03:42:39;;;;;;;0.70;0.38;;;15.70;52.70;;;;;;4951217;28;45375;-68
2023/04/03 03:45:05;;;;;;;0.50;0.50;;;15.80;52.80;;;;;;4965094;28;45589;-68
2023/04/03 03:47:31;;;;;;;0.47;0.40;;;15.70;52.80;;;;;;4945953;28;46176;-68
2023/04/03 03:49:56;;;;;;;0.85;0.50;;;15.70;52.80;;;;;;4963480;28;45243;-68
2023/04/03 03:52:22;;;;;;;0.40;0.40;;;15.70;52.80;;;;;;4961983;28;45679;-68
2023/04/03 03:54:48;;;;;;;0.50;0.50;;;15.70;52.80;;;;;;4955089;28;45934;-68
2023/04/03 03:57:13;;;;;;;0.80;0.50;;;15.70;52.80;;;;;;4963978;28;46115;-68
2023/04/03 03:59:41;;;;;;;0.40;0.32;;;15.70;52.80;;;;;;4984058;28;45902;-67
2023/04/03 04:02:07;;;;;;;0.70;0.52;;;15.70;52.80;;;;;;4939982;28;47078;-68
2023/04/03 04:04:32;;;;;;;1.17;0.60;;;15.70;52.80;;;;;;4966430;28;45411;-67
2023/04/03 04:07:00;;;;;;;0.47;0.43;;;15.70;52.80;;;;;;4933502;28;45419;-68
2023/04/03 04:09:26;;;;;;;0.57;0.57;;;15.70;52.80;;;;;;4949436;28;45302;-68
2023/04/03 04:11:51;;;;;;;0.35;0.35;;;15.70;52.80;;;;;;4949273;28;45574;-67
2023/04/03 04:14:17;;;;;;;0.52;0.50;;;15.70;52.80;;;;;;4953748;28;46179;-68
2023/04/03 04:16:42;;;;;;;0.63;0.47;;;15.70;52.80;;;;;;4956209;28;45517;-68
2023/04/03 04:19:08;;;;;;;0.98;0.55;;;15.70;52.80;;;;;;4984989;28;45497;-68
2023/04/03 04:21:33;;;;;;;0.70;0.40;;;15.70;52.80;;;;;;4957855;28;45191;-68
2023/04/03 04:23:59;;;;;;;0.70;0.50;;;15.70;52.80;;;;;;4967753;28;45757;-68
2023/04/03 04:26:25;;;;;;;0.75;0.45;;;15.70;52.80;;;;;;4980692;28;45246;-68
2023/04/03 04:28:50;;;;;;;1.15;0.40;;;15.70;52.90;;;;;;4964665;28;45336;-68
2023/04/03 04:31:16;;;;;;;0.45;0.32;;;15.70;52.90;;;;;;4959013;28;47302;-68
2023/04/03 04:33:41;;;;;;;0.90;0.50;;;15.70;52.90;;;;;;4964632;28;45222;-68
2023/04/03 04:36:07;;;;;;;0.90;0.40;;;15.60;52.80;;;;;;4942566;28;45670;-68
2023/04/03 04:38:32;;;;;;;1.08;0.60;;;15.70;52.80;;;;;;4994935;28;45284;-67
2023/04/03 04:40:58;;;;;;;0.73;0.38;;;15.70;52.90;;;;;;4959620;28;45153;-68
2023/04/03 04:43:23;;;;;;;0.30;0.30;;;15.60;52.80;;;;;;4967090;28;44949;-68
2023/04/03 04:45:49;;;;;;;0.47;0.40;;;15.60;52.80;;;;;;4962485;28;45381;-68
2023/04/03 04:48:14;;;;;;;0.25;0.22;;;15.60;52.80;;;;;;4953208;28;45155;-67
2023/04/03 04:50:40;;;;;;;0.43;0.43;;;15.60;52.80;;;;;;4964826;28;45022;-68
2023/04/03 04:53:05;;;;;;;0.47;0.45;;;15.60;52.80;;;;;;4954004;28;46212;-68
2023/04/03 04:55:31;;;;;;;0.70;0.47;;;15.60;52.80;;;;;;4962608;28;47155;-68
2023/04/03 04:57:57;;;;;;;0.52;0.43;;;15.60;52.80;;;;;;4983074;28;44953;-67
2023/04/03 05:00:23;;;;;;;0.32;0.30;;;15.60;52.90;;;;;;4943826;28;45237;-68
2023/04/03 05:02:48;;;;;;;0.50;0.50;;;15.60;52.90;;;;;;4947268;28;45552;-67
2023/04/03 05:05:14;;;;;;;0.40;0.40;;;15.60;52.80;;;;;;4962281;28;45613;-68
2023/04/03 05:07:40;;;;;;;0.50;0.40;;;15.60;52.90;;;;;;4967505;28;45558;-68
2023/04/03 05:10:07;;;;;;;0.80;0.57;;;15.60;52.90;;;;;;4946725;28;45538;-68
2023/04/03 05:12:33;;;;;;;0.57;0.45;;;15.60;52.90;;;;;;4967474;28;45444;-68
2023/04/03 05:14:58;;;;;;;0.88;0.68;;;15.60;52.90;;;;;;4950690;28;45990;-67
2023/04/03 05:17:24;;;;;;;0.70;0.40;;;15.60;52.80;;;;;;4959039;28;44733;-67
2023/04/03 05:19:49;;;;;;;0.50;0.50;;;15.60;52.80;;;;;;4951976;28;45309;-67
2023/04/03 05:22:15;;;;;;;0.70;0.50;;;15.60;52.80;;;;;;4945802;28;45345;-67
2023/04/03 05:24:40;;;;;;;0.70;0.50;;;15.60;52.90;;;;;;4981460;28;45998;-68
2023/04/03 05:27:06;;;;;;;0.43;0.43;;;15.60;52.90;;;;;;4961872;28;45629;-68
2023/04/03 05:29:32;;;;;;;0.85;0.60;;;15.50;52.80;;;;;;4967901;28;45270;-68
2023/04/03 05:31:57;;;;;;;0.52;0.52;;;15.60;52.90;;;;;;4974692;28;46574;-67
2023/04/03 05:34:23;;;;;;;0.40;0.40;;;15.50;52.80;;;;;;4950366;28;45518;-67
2023/04/03 05:36:48;;;;;;;0.43;0.43;;;15.60;52.90;;;;;;4980049;28;45254;-67
2023/04/03 05:39:14;;;;;;;0.82;0.45;;;15.60;52.90;;;;;;4951869;28;45111;-67
2023/04/03 05:41:39;;;;;;;1.27;0.70;;;15.50;52.90;;;;;;4980656;28;45479;-67
2023/04/03 05:44:05;;;;;;;0.45;0.40;;;15.50;52.90;;;;;;4965306;28;45287;-67
2023/04/03 05:46:31;;;;;;;0.90;0.57;;;15.50;52.80;;;;;;4942499;28;45625;-68
2023/04/03 05:48:56;;;;;;;0.38;0.38;;;15.50;52.80;;;;;;4982806;28;44962;-68
2023/04/03 05:51:23;;;;;;;0.38;0.38;;;15.50;52.90;;;;;;4978466;28;45135;-67
2023/04/03 05:53:49;;;;;;;0.60;0.60;;;15.50;52.90;;;;;;4951175;28;46711;-70
2023/04/03 05:56:15;;;;;;;0.75;0.43;;;15.50;52.90;;;;;;4965274;28;44952;-69
2023/04/03 05:58:40;;;;;;;0.80;0.60;;;15.50;53.40;;;;;;4985605;28;45433;-69
2023/04/03 06:01:06;;;;;;;0.43;0.43;;;15.60;53.50;;;;;;4978795;28;45308;-69
2023/04/03 06:03:32;;;;;;;0.60;0.60;;;15.50;52.80;;;;;;4966547;28;46547;-70
2023/04/03 06:05:57;;;;;;;0.30;0.30;;;15.70;52.80;;;;;;4966932;28;45508;-70
2023/04/03 06:08:23;;;;;;;0.70;0.63;;;15.90;52.60;;;;;;4958954;28;45092;-70
2023/04/03 06:10:50;;;;;;;0.70;0.50;;;16.10;52.40;;;;;;4958012;28;45338;-71
2023/04/03 06:13:15;;;;;;;0.38;0.38;;;16.30;52.10;;;;;;4994397;28;45918;-73
2023/04/03 06:15:41;;;;;;;0.50;0.40;;;16.50;51.80;;;;;;4952142;28;45423;-70
2023/04/03 06:18:07;;;;;;;0.43;0.40;;;16.60;51.60;;;;;;4973444;28;45339;-69
2023/04/03 06:20:32;;;;;;;0.40;0.35;;;16.80;51.40;;;;;;4955963;28;45733;-70
2023/04/03 06:22:58;;;;;;;0.43;0.43;;;17.00;51.20;;;;;;4973391;28;46796;-69
2023/04/03 06:25:24;;;;;;;0.45;0.30;;;17.10;51.00;;;;;;4967952;28;45200;-68
2023/04/03 06:27:49;;;;;;;1.55;0.40;;;17.30;50.90;;;;;;4990262;28;45477;-69
2023/04/03 06:30:15;;;;;;;0.30;0.30;;;17.40;50.70;;;;;;4952311;28;45880;-68
2023/04/03 06:32:41;;;;;;;2.25;0.30;;;17.60;50.50;;;;;;4966889;28;45535;-67
2023/04/03 06:35:07;;;;;;;0.50;0.45;;;17.80;50.40;;;;;;4968018;28;45271;-68
2023/04/03 06:37:32;;;;;;;0.63;0.40;;;17.90;50.20;;;;;;4952892;28;45272;-69
2023/04/03 06:40:00;;;;;;;0.40;0.38;;;18.10;50.10;;;;;;4954867;28;44943;-68
2023/04/03 06:42:25;;;;;;;0.52;0.45;;;18.20;50.00;;;;;;4950465;28;45399;-70
2023/04/03 06:44:51;;;;;;;2.80;0.50;;;18.40;50.00;;;;;;4954856;28;45234;-69
2023/04/03 06:47:17;;;;;;;0.20;0.20;;;18.40;49.80;;;;;;4959297;28;45311;-69
2023/04/03 06:49:42;;;;;;;0.20;0.20;;;18.60;49.80;;;;;;4960274;28;45417;-69
2023/04/03 06:52:08;;;;;;;1.15;0.30;;;18.70;49.70;;;;;;4964705;28;45473;-69
2023/04/03 06:54:34;;;;;;;2.72;0.32;;;18.80;49.60;;;;;;4973816;28;45456;-68
2023/04/03 06:57:00;;;;;;;0.60;0.47;;;19.00;49.60;;;;;;4951441;28;45355;-69
2023/04/03 06:59:25;;;;;;;0.30;0.30;;;19.10;49.40;;;;;;4973538;28;45666;-70
2023/04/03 07:01:51;;;;;;;1.17;0.50;;;19.20;49.30;;;;;;4978014;28;46211;-68
2023/04/03 07:04:16;;;;;;;0.88;0.30;;;19.40;49.20;;;;;;4968449;28;45332;-67
2023/04/03 07:06:42;;;;;;;0.90;0.35;;;19.40;49.10;;;;;;4966366;28;45383;-68
2023/04/03 07:09:08;;;;;;;1.10;0.30;;;19.60;49.00;;;;;;4988454;28;45382;-68
2023/04/03 07:11:34;;;;;;;0.20;0.20;;;19.70;48.90;;;;;;4965568;28;46001;-67
2023/04/03 07:14:00;;;;;;;0.50;0.30;;;19.80;48.80;;;;;;4972978;28;45419;-68
2023/04/03 07:16:25;;;;;;;0.65;0.45;;;19.90;48.70;;;;;;4974649;28;45374;-68
2023/04/03 07:18:51;;;;;;;0.75;0.40;;;20.00;48.50;;;;;;4972007;28;45528;-68
2023/04/03 07:21:16;;;;;;;0.50;0.40;;;20.20;48.50;;;;;;4968222;28;46868;-70
2023/04/03 07:23:42;;;;;;;0.30;0.30;;;20.20;48.40;;;;;;4988730;28;45201;-68
2023/04/03 07:26:08;;;;;;;0.80;0.30;;;20.30;48.30;;;;;;4984886;28;45130;-68
2023/04/03 07:28:33;;;;;;;0.20;0.20;;;20.40;48.20;;;;;;4982326;28;45062;-69
2023/04/03 07:31:01;;;;;;;0.50;0.30;;;20.50;48.10;;;;;;4953125;28;45520;-67
2023/04/03 07:33:27;;;;;;;3.15;0.35;;;20.50;48.10;;;;;;4976526;28;44973;-68
2023/04/03 07:35:52;;;;;;;0.40;0.40;;;20.60;48.00;;;;;;4967072;28;46061;-68
2023/04/03 07:38:18;;;;;;;1.95;0.60;;;20.60;47.90;;;;;;4947844;28;46032;-67
2023/04/03 07:40:47;;;;;;;0.20;0.20;;;20.70;47.90;;;;;;4963578;28;47318;-69
2023/04/03 07:43:14;;;;;;;0.80;0.50;;;20.70;47.70;;;;;;4987526;28;45416;-69
2023/04/03 07:45:40;;;;;;;1.40;0.20;;;20.80;47.70;;;;;;4954256;28;45672;-66
2023/04/03 07:48:06;;;;;;;0.30;0.30;;;20.80;47.60;;;;;;4966408;28;45513;-69
2023/04/03 07:50:32;;;;;;;0.40;0.30;;;20.90;47.60;;;;;;4966356;28;45560;-68
2023/04/03 07:52:58;;;;;;;0.55;0.30;;;20.90;47.50;;;;;;4944492;28;45256;-70
2023/04/03 07:55:24;;;;;;;0.98;0.28;;;20.90;47.50;;;;;;4917089;28;45847;-68
2023/04/03 07:57:50;;;;;;;0.20;0.20;;;21.00;48.10;;;;;;4984871;28;45267;-69
2023/04/03 08:00:17;;;;;;;0.52;0.30;;;21.10;47.50;;;;;;4960689;28;45478;-69
2023/04/03 08:02:44;;;;;;;0.60;0.30;;;21.20;47.40;;;;;;4966896;28;45411;-69
2023/04/03 08:05:11;;;;;;;1.10;0.30;;;21.30;47.30;;;;;;4952908;28;45710;-70
2023/04/03 08:07:37;;;;;;;1.23;0.40;;;21.30;47.30;;;;;;4959945;28;45664;-71
2023/04/03 08:10:03;;;;;;;0.65;0.35;;;21.40;47.30;;;;;;4973606;28;45181;-75
2023/04/03 08:12:29;;;;;;;1.00;0.30;;;21.50;47.10;;;;;;4954880;28;45533;-67
2023/04/03 08:14:55;;;;;;;1.65;0.50;;;21.60;47.10;;;;;;4990942;28;45467;-69
2023/04/03 08:17:21;;;;;;;0.90;0.22;;;21.60;47.00;;;;;;4939292;28;45417;-69
2023/04/03 08:19:46;;;;;;;0.40;0.40;;;21.70;47.00;;;;;;4971000;28;45330;-67
2023/04/03 08:22:12;;;;;;;0.88;0.35;;;21.70;46.80;;;;;;4963535;28;45161;-68
2023/04/03 08:24:38;;;;;;;0.68;0.20;;;21.80;46.70;;;;;;4975790;28;45694;-67
2023/04/03 08:27:03;;;;;;;0.98;0.40;;;21.90;46.70;;;;;;4971535;28;45220;-70
2023/04/03 08:29:29;;;;;;;1.65;0.25;;;21.90;47.20;;;;;;4988591;28;45410;-69
2023/04/03 08:31:55;;;;;;;0.60;0.30;;;21.90;46.60;;;;;;4990046;28;45229;-69
2023/04/03 08:34:21;;;;;;;0.47;0.40;;;22.00;46.60;;;;;;4972796;28;45294;-70
2023/04/03 08:36:46;;;;;;;0.47;0.30;;;22.00;46.50;;;;;;4961811;28;45841;-67
2023/04/03 08:39:12;;;;;;;0.55;0.32;;;22.00;46.50;;;;;;4965950;28;46689;-69
2023/04/03 08:41:39;;;;;;;1.02;0.30;;;22.10;46.50;;;;;;4967249;28;46895;-68
2023/04/03 08:44:11;;;;;;;0.80;0.38;;;22.10;46.50;;;;;;4972552;28;45607;-67
2023/04/03 08:46:46;;;;;;;0.25;0.20;;;22.20;46.50;;;;;;4968092;28;45501;-67
2023/04/03 08:49:22;;;;;;;1.15;0.30;;;22.20;46.30;;;;;;4986718;28;45981;-69
2023/04/03 08:51:49;;;;;;;0.70;0.40;;;22.20;46.30;;;;;;4966770;28;45060;-67
2023/04/03 08:54:29;;;;;;;1.60;0.40;;;22.20;46.30;;;;;;4983151;28;45281;-70
2023/04/03 08:56:55;;;;;;;0.50;0.30;;;22.20;46.00;;;;;;4968176;28;45274;-68
2023/04/03 08:59:29;;;;;;;1.65;0.30;;;22.30;46.30;;;;;;4940799;28;46227;-68
2023/04/03 09:01:56;;;;;;;0.30;0.20;;;22.30;46.20;;;;;;4963516;28;45880;-71
2023/04/03 09:04:21;;;;;;;0.20;0.20;;;22.40;46.40;;;;;;4971054;28;45371;-71
2023/04/03 09:06:53;;;;;;;0.50;0.32;;;22.40;46.20;;;;;;4992340;28;44936;-69
2023/04/03 09:09:40;;;;;;;2.25;0.22;;;22.50;46.80;;;;;;4981830;28;46421;-71
2023/04/03 09:12:09;;;;;;;0.30;0.30;;;22.60;45.80;;;;;;4952611;28;45482;-71
2023/04/03 09:14:55;;;;;;;0.45;0.20;;;22.60;46.10;;;;;;4988699;28;45531;-69
2023/04/03 09:17:43;;;;;;;0.50;0.32;;;22.70;45.80;;;;;;4977238;28;45398;-69
2023/04/03 09:20:12;;;;;;;0.30;0.20;;;22.70;45.60;;;;;;4974530;28;46942;-69
2023/04/03 09:22:41;;;;;;;0.63;0.40;;;22.80;45.90;;;;;;4972500;28;45090;-69
2023/04/03 09:25:21;;;;;;;2.08;0.38;;;22.80;45.80;;;;;;4967585;28;44746;-67
2023/04/03 09:27:46;;;;;;;0.30;0.30;;;22.80;45.60;;;;;;4970113;28;45504;-66
2023/04/03 09:30:16;;;;;;;2.58;0.32;;;22.80;45.80;;;;;;4952341;28;45149;-67
2023/04/03 09:32:44;;;;;;;0.57;0.28;;;22.90;45.80;;;;;;4947640;28;45165;-70
2023/04/03 09:35:19;;;;;;;2.22;0.20;;;22.90;46.40;;;;;;4961532;28;44713;-69
2023/04/03 09:37:46;;;;;;;4.13;0.30;;;23.00;45.60;;;;;;4986203;28;45375;-69
2023/04/03 09:40:30;;;;;;;;;;;22.90;45.70;;;;;;4982950;28;45528;-69
2023/04/03 09:43:00;;;;;;;3.47;0.40;;;23.00;45.10;;;;;;4969821;28;45602;-67
2023/04/03 09:45:31;;;;;;;0.47;0.35;;;23.00;45.70;;;;;;4949097;28;45108;-69
2023/04/03 09:48:12;;;;;;;1.65;0.30;;;23.00;45.70;;;;;;4978160;28;45600;-68
2023/04/03 09:50:50;;;;;;;1.65;0.85;;;23.00;45.30;;;;;;4987367;28;46502;-67
2023/04/03 09:53:45;;;;;;;2.42;0.38;;;23.10;45.70;;;;;;4976801;28;45538;-69
2023/04/03 09:56:17;;;;;;;1.27;0.40;;;23.10;45.10;;;;;;4973343;28;45846;-68
2023/04/03 09:58:44;;;;;;;1.65;0.40;;;23.10;45.40;;;;;;4987176;28;44759;-65
2023/04/03 10:01:27;;;;;;;5.60;0.30;;;23.20;45.60;;;;;;4946416;28;45586;-69
2023/04/03 10:04:09;;;;;;;0.20;0.20;;;23.20;45.20;;;;;;4961783;28;45749;-68
2023/04/03 10:06:46;;;;;;;0.60;0.40;;;23.20;45.20;;;;;;4951401;28;45018;-68
2023/04/03 10:09:45;;;;;;;0.80;0.30;;;23.20;45.50;;;;;;4943658;28;44984;-68
2023/04/03 10:12:12;;;;;;;1.40;0.32;;;23.30;45.10;;;;;;4963918;28;45525;-68
2023/04/03 10:14:55;;;;;;;0.82;0.30;;;23.30;45.50;;;;;;4949090;28;45382;-68
2023/04/03 10:17:21;;;;;;;0.70;0.30;;;23.30;45.60;;;;;;4964543;28;45544;-69
2023/04/03 10:19:57;;;;;;;0.77;0.30;;;23.30;45.40;;;;;;4988095;28;46709;-69
2023/04/03 10:23:01;;;;;;;0.55;0.40;;;23.30;45.30;;;;;;4951966;28;45936;-69
2023/04/03 10:25:38;;;;;;;0.65;0.30;;;23.30;44.90;;;;;;4986441;28;44625;-67
2023/04/03 10:28:16;;;;;;;1.40;0.35;;;23.30;45.00;;;;;;4956105;28;45236;-69
2023/04/03 10:30:55;;;;;;;1.65;0.30;;;23.40;45.00;;;;;;4949203;28;45362;-68
2023/04/03 10:33:30;;;;;;;0.75;0.40;;;23.40;45.20;;;;;;4961879;28;47748;-69
2023/04/03 10:36:09;;;;;;;1.63;0.30;;;23.40;45.00;;;;;;4969179;28;45518;-68
2023/04/03 10:38:43;;;;;;;0.73;0.20;;;23.40;44.80;;;;;;4940778;28;45256;-69
2023/04/03 10:41:14;;;;;;;1.80;0.40;;;23.50;45.00;;;;;;4955174;28;45316;-69
2023/04/03 10:43:47;;;;;;;0.50;0.40;;;23.40;45.00;;;;;;4975453;28;47595;-69
2023/04/03 10:46:16;;;;;;;1.33;0.30;;;23.40;44.90;;;;;;4969009;28;45135;-69
2023/04/03 10:48:47;;;;;;;0.77;0.22;;;23.50;45.10;;;;;;4977468;28;45469;-68
2023/04/03 10:51:20;;;;;;;0.77;0.40;;;23.50;44.80;;;;;;4963215;28;45183;-68
2023/04/03 10:53:55;;;;;;;;;;;23.40;45.00;;;;;;4989575;28;47754;-67
2023/04/03 10:56:36;;;;;;;0.30;0.20;;;23.30;44.50;;;;;;4953926;28;45607;-68
2023/04/03 10:59:08;;;;;;;1.20;0.30;;;23.30;45.00;;;;;;4974996;28;45245;-68
2023/04/03 11:01:35;;;;;;;0.77;0.35;;;23.20;45.30;;;;;;4985027;28;45701;-68
2023/04/03 11:04:00;;;;;;;0.32;0.30;;;23.10;45.50;;;;;;4955959;28;47024;-69
2023/04/03 11:06:31;;;;;;;0.28;0.20;;;23.00;45.50;;;;;;4972252;28;45569;-71
2023/04/03 11:09:03;;;;;;;1.63;0.20;;;23.00;45.70;;;;;;4990937;28;45245;-69
2023/04/03 11:11:35;;;;;;;0.30;0.30;;;22.90;45.80;;;;;;4938362;28;45281;-68
2023/04/03 11:14:23;;;;;;;1.15;0.30;;;22.80;45.70;;;;;;4970323;28;46768;-68
2023/04/03 11:16:54;;;;;;;0.45;0.30;;;22.80;45.70;;;;;;4964076;28;45573;-70
2023/04/03 11:19:43;;;;;;;0.68;0.30;;;22.70;46.00;;;;;;4973632;28;44661;-68
2023/04/03 11:22:32;;;;;;;1.85;0.30;;;22.70;45.90;;;;;;4989583;28;45521;-67
2023/04/03 11:25:10;;;;;;;0.65;0.30;;;22.60;46.00;;;;;;4977105;28;46268;-67
2023/04/03 11:28:04;;;;;;;0.50;0.20;;;22.50;46.30;;;;;;4975836;28;45197;-69
2023/04/03 11:30:48;;;;;;;4.85;0.47;;;22.50;46.30;;;;;;4972777;28;45215;-68
2023/04/03 11:33:29;;;;;;;0.38;0.30;;;22.40;46.40;;;;;;4975506;28;44838;-68
2023/04/03 11:36:01;;;;;;;0.75;0.52;;;22.40;46.40;;;;;;4986378;28;46638;-68
2023/04/03 11:38:30;;;;;;;1.23;0.45;;;22.30;46.50;;;;;;4986753;28;45841;-67
2023/04/03 11:40:56;;;;;;;2.05;0.20;;;22.30;46.60;;;;;;4982783;28;45418;-68
2023/04/03 11:43:30;;;;;;;0.70;0.30;;;22.20;46.60;;;;;;4964687;28;44805;-68
2023/04/03 11:46:03;;;;;;;3.67;0.40;;;22.20;46.60;;;;;;4959066;28;47109;-70
2023/04/03 11:48:29;;;;;;;0.32;0.30;;;22.20;46.60;;;;;;4936334;28;45290;-67
2023/04/03 11:50:55;;;;;;;2.38;0.30;;;22.10;46.70;;;;;;4984619;28;45207;-67
2023/04/03 11:53:28;;;;;;;0.55;0.20;;;22.10;46.70;;;;;;4971837;28;45763;-66
2023/04/03 11:55:59;;;;;;;0.77;0.30;;;22.10;46.70;;;;;;4964098;28;46639;-67
2023/04/03 11:58:26;;;;;;;2.20;0.35;;;22.10;46.90;;;;;;4973090;28;45068;-68
2023/04/03 12:00:55;;;;;;;0.60;0.30;;;22.00;46.90;;;;;;4994735;28;44986;-66
2023/04/03 12:03:27;;;;;;;0.57;0.20;;;22.00;46.90;;;;;;4975873;28;45719;-67
2023/04/03 12:05:53;;;;;;;0.63;0.32;;;21.90;47.00;;;;;;4964232;28;46946;-67
2023/04/03 12:08:29;;;;;;;0.35;0.30;;;21.90;47.10;;;;;;4988901;28;45240;-67
2023/04/03 12:11:25;;;;;;;0.77;0.30;;;21.90;47.10;;;;;;4966928;28;45111;-70
2023/04/03 12:13:53;;;;;;;0.35;0.17;;;21.80;47.10;;;;;;4953902;28;45296;-68
2023/04/03 12:16:47;;;;;;;0.80;0.30;;;21.80;47.20;;;;;;4982746;28;45170;-68
2023/04/03 12:19:18;;;;;;;1.60;0.32;;;21.80;47.20;;;;;;4958089;28;45131;-69
2023/04/03 12:21:43;;;;;;;2.85;0.30;;;21.70;47.30;;;;;;4980364;28;45311;-68
2023/04/03 12:24:12;;;;;;;3.00;0.40;;;21.70;47.40;;;;;;4989196;28;45388;-69
2023/04/03 12:26:56;;;;;;;0.98;0.30;;;21.70;47.40;;;;;;4974308;28;45848;-68
2023/04/03 12:29:34;;;;;;;0.77;0.40;;;21.60;47.40;;;;;;4972192;28;44709;-70
2023/04/03 12:32:07;;;;;;;0.95;0.40;;;21.60;47.50;;;;;;4990918;28;44819;-67
2023/04/03 12:34:41;;;;;;;0.93;0.50;;;21.60;47.50;;;;;;4990868;28;45711;-67
2023/04/03 12:37:24;;;;;;;0.60;0.40;;;21.50;47.60;;;;;;4983599;28;45109;-70
2023/04/03 12:40:13;;;;;;;;;;;21.50;47.60;;;;;;4988403;28;45311;-68
2023/04/03 12:42:56;;;;;;;1.15;0.40;;;21.40;47.60;;;;;;4963993;28;45236;-69
2023/04/03 12:45:23;;;;;;;0.50;0.40;;;21.40;47.60;;;;;;4939705;28;45407;-67
2023/04/03 12:47:58;;;;;;;0.40;0.30;;;21.40;47.70;;;;;;4955420;28;47058;-67
2023/04/03 12:50:33;;;;;;;2.50;0.30;;;21.40;47.70;;;;;;4966998;28;45615;-68
2023/04/03 12:53:11;;;;;;;0.57;0.40;;;21.40;47.80;;;;;;4957818;28;45229;-68
2023/04/03 12:55:37;;;;;;;0.82;0.40;;;21.40;47.90;;;;;;4949523;28;45240;-68
2023/04/03 12:58:23;;;;;;;0.30;0.30;;;21.30;47.90;;;;;;4991651;28;45672;-67
2023/04/03 13:01:11;;;;;;;1.38;0.30;;;21.30;47.90;;;;;;4980112;28;45233;-67
2023/04/03 13:03:38;;;;;;;0.40;0.40;;;21.30;48.00;;;;;;4985221;28;45244;-69
2023/04/03 13:06:04;;;;;;;0.82;0.38;;;21.20;47.90;;;;;;4979819;28;44777;-67
2023/04/03 13:08:30;;;;;;;1.40;0.38;;;21.20;48.00;;;;;;4950705;28;45159;-68
2023/04/03 13:10:59;;;;;;;1.05;0.30;;;21.20;48.10;;;;;;4951481;28;45303;-63
2023/04/03 13:13:26;;;;;;;0.40;0.40;;;21.20;47.90;;;;;;5002211;28;45292;-61
2023/04/03 13:15:53;;;;;;;0.38;0.38;;;21.10;47.90;;;;;;4960500;28;45287;-61
2023/04/03 13:18:26;;;;;;;0.60;0.43;;;21.10;47.90;;;;;;4987048;28;45337;-60
2023/04/03 13:20:51;;;;;;;;;;;21.10;47.90;;;;;;4971374;28;45589;-64
2023/04/03 13:23:18;;;;;;;2.50;0.40;;;21.10;48.10;;;;;;4959615;28;45664;-59
2023/04/03 13:25:43;;;;;;;4.47;0.50;;;21.00;48.00;;;;;;4972726;28;45580;-62
2023/04/03 13:28:15;;;;;;;0.60;0.40;;;21.00;48.10;;;;;;4974422;28;45652;-61
2023/04/03 13:30:41;;;;;;;1.15;0.30;;;21.00;48.00;;;;;;4967076;28;45473;-65
2023/04/03 13:33:20;;;;;;;1.95;0.30;;;21.00;48.10;;;;;;4975175;28;45224;-62
2023/04/03 13:35:46;;;;;;;0.95;0.40;;;21.00;48.20;;;;;;4954673;28;45349;-60
2023/04/03 13:38:17;;;;;;;1.77;0.55;;;20.90;48.10;;;;;;4987475;28;45432;-64
2023/04/03 13:40:54;;;;;;;1.02;0.20;;;20.90;48.30;;;;;;4989072;28;45244;-61
2023/04/03 13:43:26;;;;;;;0.98;0.40;;;20.90;48.20;;;;;;4977096;28;45147;-60
2023/04/03 13:46:06;;;;;;;1.02;0.40;;;20.90;48.30;;;;;;4964979;28;45198;-63
2023/04/03 13:48:39;;;;;;;0.30;0.30;;;20.90;48.40;;;;;;4975340;28;45194;-62
2023/04/03 13:51:26;;;;;;;1.45;0.60;;;20.80;48.30;;;;;;4969833;28;45228;-58
2023/04/03 13:53:59;;;;;;;0.30;0.30;;;20.80;48.70;;;;;;4978757;28;45396;-62
2023/04/03 13:56:37;;;;;;;1.13;0.20;;;20.80;48.50;;;;;;4998139;28;44827;-61
2023/04/03 13:59:06;;;;;;;0.60;0.50;;;20.70;48.40;;;;;;4975014;28;46553;-61
2023/04/03 14:01:45;;;;;;;0.28;0.20;;;20.80;48.50;;;;;;4955590;28;45740;-62
2023/04/03 14:04:14;;;;;;;0.40;0.30;;;20.70;48.50;;;;;;4970515;28;45417;-61
2023/04/03 14:06:40;;;;;;;1.40;0.50;;;20.70;48.60;;;;;;4934517;28;46492;-61
2023/04/03 14:09:05;;;;;;;2.60;0.32;;;20.70;48.60;;;;;;4933522;28;47959;-62
2023/04/03 14:11:31;;;;;;;2.28;0.50;;;20.60;48.60;;;;;;4967411;28;45026;-61
2023/04/03 14:13:59;;;;;;;1.88;0.40;;;20.70;48.70;;;;;;4957160;28;45352;-63
2023/04/03 14:16:27;;;;;;;0.45;0.40;;;20.60;48.60;;;;;;4933094;28;45619;-61
2023/04/03 14:18:52;;;;;;;0.85;0.40;;;20.60;48.70;;;;;;4971577;28;45382;-60
2023/04/03 14:21:18;;;;;;;0.52;0.30;;;20.60;48.70;;;;;;4969582;28;44808;-61
2023/04/03 14:23:44;;;;;;;0.30;0.30;;;20.60;48.80;;;;;;4951818;28;45414;-58
2023/04/03 14:26:12;;;;;;;0.40;0.30;;;20.60;48.80;;;;;;4962820;28;45287;-61
2023/04/03 14:28:39;;;;;;;3.45;0.40;;;20.50;48.80;;;;;;4947317;28;45296;-60
2023/04/03 14:31:05;;;;;;;0.30;0.30;;;20.50;48.80;;;;;;4960822;28;45214;-61
2023/04/03 14:33:34;;;;;;;0.50;0.50;;;20.50;48.80;;;;;;4956005;28;45536;-60
2023/04/03 14:36:02;;;;;;;0.80;0.40;;;20.50;48.90;;;;;;4967794;28;44699;-66
2023/04/03 14:38:29;;;;;;;0.50;0.40;;;20.50;48.90;;;;;;4956151;28;45515;-60
2023/04/03 14:40:55;;;;;;;0.55;0.40;;;20.50;48.90;;;;;;4928522;28;46052;-59
2023/04/03 14:43:20;;;;;;;0.32;0.28;;;20.50;48.90;;;;;;4956996;28;45476;-61
2023/04/03 14:45:47;;;;;;;2.78;0.40;;;20.40;48.90;;;;;;4949003;28;45702;-62
2023/04/03 14:48:19;;;;;;;0.68;0.30;;;20.50;49.00;;;;;;4955434;28;45312;-63
2023/04/03 14:50:44;;;;;;;1.02;0.40;;;20.40;48.90;;;;;;4950280;28;44759;-62
2023/04/03 14:53:10;;;;;;;0.63;0.40;;;20.40;49.10;;;;;;4970910;28;45212;-62
2023/04/03 14:55:35;;;;;;;0.40;0.30;;;20.40;49.10;;;;;;4951251;28;45614;-62
2023/04/03 14:58:01;;;;;;;0.50;0.30;;;20.40;49.10;;;;;;4954907;28;46947;-64
2023/04/03 15:00:27;;;;;;;0.32;0.30;;;20.40;49.10;;;;;;4966057;28;45138;-68
2023/04/03 15:02:53;;;;;;;0.30;0.30;;;20.40;49.10;;;;;;4951563;28;44737;-63
2023/04/03 15:05:19;;;;;;;0.47;0.47;;;20.30;49.00;;;;;;4985178;28;45416;-68
2023/04/03 15:07:53;;;;;;;1.10;0.30;;;20.30;49.10;;;;;;4971686;28;46372;-59
2023/04/03 15:10:27;;;;;;;1.02;0.30;;;20.30;49.10;;;;;;4953890;28;45019;-65
2023/04/03 15:12:53;;;;;;;0.70;0.30;;;20.30;49.20;;;;;;4963931;28;45191;-61
2023/04/03 15:15:22;;;;;;;0.57;0.40;;;20.30;49.20;;;;;;4954226;28;44749;-60
2023/04/03 15:17:53;;;;;;;0.73;0.38;;;20.30;49.20;;;;;;4966923;28;45590;-63
2023/04/03 15:20:21;;;;;;;0.50;0.35;;;20.30;49.30;;;;;;4969970;28;45292;-64
2023/04/03 15:22:47;;;;;;;0.52;0.30;;;20.30;49.30;;;;;;4975580;28;45406;-61
2023/04/03 15:25:12;;;;;;;0.30;0.30;;;20.20;49.30;;;;;;4954132;28;44776;-68
2023/04/03 15:27:38;;;;;;;0.65;0.30;;;20.20;49.30;;;;;;4954619;28;45443;-60
2023/04/03 15:30:05;;;;;;;1.88;0.40;;;20.20;49.30;;;;;;4969960;28;45202;-65
2023/04/03 15:32:31;;;;;;;0.68;0.40;;;20.20;49.30;;;;;;4937660;28;45002;-58
2023/04/03 15:34:56;;;;;;;0.32;0.32;;;20.20;49.30;;;;;;4976144;28;44821;-59
2023/04/03 15:37:22;;;;;;;1.92;0.40;;;20.20;49.40;;;;;;4964230;28;45365;-64
2023/04/03 15:39:47;;;;;;;1.73;0.28;;;20.10;49.40;;;;;;4989244;28;46776;-58
2023/04/03 15:42:13;;;;;;;0.75;0.32;;;20.10;49.40;;;;;;4996461;28;45329;-57
2023/04/03 15:44:38;;;;;;;1.13;0.40;;;20.10;49.40;;;;;;4976844;28;45283;-65
2023/04/03 15:47:04;;;;;;;0.38;0.38;;;20.10;49.40;;;;;;4966913;28;45402;-68
2023/04/03 15:49:31;;;;;;;2.03;0.30;;;20.10;49.40;;;;;;4985297;28;45605;-61
2023/04/03 15:51:57;;;;;;;1.00;0.40;;;20.10;49.50;;;;;;4965199;28;45252;-64
2023/04/03 15:54:23;;;;;;;1.08;0.30;;;20.10;49.50;;;;;;4972720;28;45263;-64
2023/04/03 15:56:49;;;;;;;0.50;0.40;;;20.10;49.50;;;;;;4981446;28;46864;-66
2023/04/03 15:59:15;;;;;;;2.92;0.22;;;20.10;49.50;;;;;;4970285;28;45182;-62